sensor_id;sensor_type;location;lat;lon;timestamp;P1;durP1;ratioP1;P2;durP2;ratioP2
8291;SDS011;4184;42.724;23.308;2022-07-01T00:00:24;3.83;;;3.43;;
8291;SDS011;4184;42.724;23.308;2022-07-01T00:02:52;3.70;;;3.07;;
8291;SDS011;4184;42.724;23.308;2022-07-01T00:05:21;3.90;;;3.53;;
8291;SDS011;4184;42.724;23.308;2022-07-01T00:07:49;3.83;;;3.50;;
8291;SDS011;4184;42.724;23.308;2022-07-01T00:10:16;4.93;;;3.60;;
8291;SDS011;4184;42.724;23.308;2022-07-01T00:12:44;4.00;;;3.30;;
8291;SDS011;4184;42.724;23.308;2022-07-01T00:15:12;3.77;;;3.47;;
8291;SDS011;4184;42.724;23.308;2022-07-01T00:17:40;5.90;;;3.47;;
8291;SDS011;4184;42.724;23.308;2022-07-01T00:20:09;3.87;;;3.47;;
8291;SDS011;4184;42.724;23.308;2022-07-01T00:22:38;3.67;;;3.20;;
8291;SDS011;4184;42.724;23.308;2022-07-01T00:25:06;3.27;;;2.93;;
8291;SDS011;4184;42.724;23.308;2022-07-01T00:27:36;4.53;;;3.13;;
8291;SDS011;4184;42.724;23.308;2022-07-01T00:30:05;3.17;;;2.87;;
8291;SDS011;4184;42.724;23.308;2022-07-01T00:32:33;3.90;;;3.20;;
8291;SDS011;4184;42.724;23.308;2022-07-01T00:35:01;3.73;;;3.37;;
8291;SDS011;4184;42.724;23.308;2022-07-01T00:37:29;4.60;;;3.63;;
8291;SDS011;4184;42.724;23.308;2022-07-01T00:39:57;4.30;;;3.17;;
8291;SDS011;4184;42.724;23.308;2022-07-01T00:42:25;3.70;;;3.23;;
8291;SDS011;4184;42.724;23.308;2022-07-01T00:44:53;3.73;;;3.33;;
8291;SDS011;4184;42.724;23.308;2022-07-01T00:47:20;4.03;;;3.53;;
8291;SDS011;4184;42.724;23.308;2022-07-01T00:49:49;3.70;;;3.27;;
8291;SDS011;4184;42.724;23.308;2022-07-01T00:52:16;5.13;;;3.73;;
8291;SDS011;4184;42.724;23.308;2022-07-01T00:54:44;3.73;;;3.37;;
8291;SDS011;4184;42.724;23.308;2022-07-01T00:57:13;3.73;;;3.30;;
8291;SDS011;4184;42.724;23.308;2022-07-01T00:59:41;3.70;;;3.40;;
8291;SDS011;4184;42.724;23.308;2022-07-01T01:02:09;4.60;;;3.43;;
8291;SDS011;4184;42.724;23.308;2022-07-01T01:04:36;4.00;;;3.07;;
8291;SDS011;4184;42.724;23.308;2022-07-01T01:07:04;4.80;;;3.30;;
8291;SDS011;4184;42.724;23.308;2022-07-01T01:09:32;3.30;;;3.00;;
8291;SDS011;4184;42.724;23.308;2022-07-01T01:12:00;3.83;;;3.40;;
8291;SDS011;4184;42.724;23.308;2022-07-01T01:14:29;3.83;;;3.53;;
8291;SDS011;4184;42.724;23.308;2022-07-01T01:17:08;4.83;;;3.40;;
8291;SDS011;4184;42.724;23.308;2022-07-01T01:19:37;3.90;;;3.50;;
8291;SDS011;4184;42.724;23.308;2022-07-01T01:22:06;4.27;;;3.87;;
8291;SDS011;4184;42.724;23.308;2022-07-01T01:24:34;7.83;;;3.63;;
8291;SDS011;4184;42.724;23.308;2022-07-01T01:27:02;5.93;;;3.40;;
8291;SDS011;4184;42.724;23.308;2022-07-01T01:29:30;5.67;;;3.80;;
8291;SDS011;4184;42.724;23.308;2022-07-01T01:31:58;3.90;;;3.60;;
8291;SDS011;4184;42.724;23.308;2022-07-01T01:34:25;4.83;;;3.77;;
8291;SDS011;4184;42.724;23.308;2022-07-01T01:36:53;3.77;;;3.47;;
8291;SDS011;4184;42.724;23.308;2022-07-01T01:39:22;4.20;;;3.90;;
8291;SDS011;4184;42.724;23.308;2022-07-01T01:41:49;4.73;;;3.40;;
8291;SDS011;4184;42.724;23.308;2022-07-01T01:44:17;3.97;;;3.60;;
8291;SDS011;4184;42.724;23.308;2022-07-01T01:46:45;4.93;;;3.17;;
8291;SDS011;4184;42.724;23.308;2022-07-01T01:49:12;3.77;;;3.30;;
8291;SDS011;4184;42.724;23.308;2022-07-01T01:51:40;3.80;;;3.50;;
8291;SDS011;4184;42.724;23.308;2022-07-01T01:54:08;3.67;;;3.37;;
8291;SDS011;4184;42.724;23.308;2022-07-01T01:56:37;4.27;;;3.70;;
8291;SDS011;4184;42.724;23.308;2022-07-01T01:59:04;4.63;;;3.63;;
8291;SDS011;4184;42.724;23.308;2022-07-01T02:01:32;4.17;;;3.50;;
8291;SDS011;4184;42.724;23.308;2022-07-01T02:03:59;4.43;;;3.10;;
8291;SDS011;4184;42.724;23.308;2022-07-01T02:06:27;4.00;;;3.60;;
8291;SDS011;4184;42.724;23.308;2022-07-01T02:08:54;4.27;;;3.70;;
8291;SDS011;4184;42.724;23.308;2022-07-01T02:11:22;4.20;;;3.80;;
8291;SDS011;4184;42.724;23.308;2022-07-01T02:13:50;4.27;;;3.63;;
8291;SDS011;4184;42.724;23.308;2022-07-01T02:16:18;4.27;;;3.87;;
8291;SDS011;4184;42.724;23.308;2022-07-01T02:18:45;4.70;;;4.00;;
8291;SDS011;4184;42.724;23.308;2022-07-01T02:21:13;4.30;;;3.80;;
8291;SDS011;4184;42.724;23.308;2022-07-01T02:23:41;3.87;;;3.47;;
8291;SDS011;4184;42.724;23.308;2022-07-01T02:26:08;4.67;;;3.90;;
8291;SDS011;4184;42.724;23.308;2022-07-01T02:28:36;4.27;;;3.37;;
8291;SDS011;4184;42.724;23.308;2022-07-01T02:31:05;3.77;;;3.47;;
8291;SDS011;4184;42.724;23.308;2022-07-01T02:33:33;3.93;;;3.53;;
8291;SDS011;4184;42.724;23.308;2022-07-01T02:36:00;4.40;;;4.00;;
8291;SDS011;4184;42.724;23.308;2022-07-01T02:38:28;4.07;;;3.53;;
8291;SDS011;4184;42.724;23.308;2022-07-01T02:40:55;4.07;;;3.67;;
8291;SDS011;4184;42.724;23.308;2022-07-01T02:43:23;4.40;;;3.37;;
8291;SDS011;4184;42.724;23.308;2022-07-01T02:45:51;4.37;;;3.93;;
8291;SDS011;4184;42.724;23.308;2022-07-01T02:48:20;4.40;;;4.00;;
8291;SDS011;4184;42.724;23.308;2022-07-01T02:50:47;4.83;;;3.77;;
8291;SDS011;4184;42.724;23.308;2022-07-01T02:53:15;4.70;;;3.73;;
8291;SDS011;4184;42.724;23.308;2022-07-01T02:55:42;4.83;;;4.17;;
8291;SDS011;4184;42.724;23.308;2022-07-01T02:58:10;6.20;;;4.90;;
8291;SDS011;4184;42.724;23.308;2022-07-01T03:00:37;4.20;;;3.87;;
8291;SDS011;4184;42.724;23.308;2022-07-01T03:03:05;6.83;;;4.10;;
8291;SDS011;4184;42.724;23.308;2022-07-01T03:05:34;8.03;;;4.20;;
8291;SDS011;4184;42.724;23.308;2022-07-01T03:08:02;4.50;;;3.80;;
8291;SDS011;4184;42.724;23.308;2022-07-01T03:10:30;6.97;;;3.63;;
8291;SDS011;4184;42.724;23.308;2022-07-01T03:12:58;4.70;;;4.23;;
8291;SDS011;4184;42.724;23.308;2022-07-01T03:15:27;7.33;;;4.33;;
8291;SDS011;4184;42.724;23.308;2022-07-01T03:17:55;5.73;;;4.07;;
8291;SDS011;4184;42.724;23.308;2022-07-01T03:20:22;4.43;;;3.90;;
8291;SDS011;4184;42.724;23.308;2022-07-01T03:22:51;4.43;;;4.03;;
8291;SDS011;4184;42.724;23.308;2022-07-01T03:25:18;5.97;;;3.90;;
8291;SDS011;4184;42.724;23.308;2022-07-01T03:27:46;4.57;;;4.13;;
8291;SDS011;4184;42.724;23.308;2022-07-01T03:30:14;6.20;;;4.20;;
8291;SDS011;4184;42.724;23.308;2022-07-01T03:32:43;4.50;;;3.67;;
8291;SDS011;4184;42.724;23.308;2022-07-01T03:35:10;4.33;;;3.93;;
8291;SDS011;4184;42.724;23.308;2022-07-01T03:37:57;6.00;;;4.00;;
8291;SDS011;4184;42.724;23.308;2022-07-01T03:40:24;7.10;;;4.23;;
8291;SDS011;4184;42.724;23.308;2022-07-01T03:42:52;4.20;;;3.80;;
8291;SDS011;4184;42.724;23.308;2022-07-01T03:45:19;4.43;;;4.00;;
8291;SDS011;4184;42.724;23.308;2022-07-01T03:47:47;5.43;;;4.50;;
8291;SDS011;4184;42.724;23.308;2022-07-01T03:50:15;5.40;;;4.43;;
8291;SDS011;4184;42.724;23.308;2022-07-01T03:52:43;5.60;;;4.30;;
8291;SDS011;4184;42.724;23.308;2022-07-01T03:55:12;4.67;;;4.17;;
8291;SDS011;4184;42.724;23.308;2022-07-01T03:57:39;6.63;;;4.10;;
8291;SDS011;4184;42.724;23.308;2022-07-01T04:00:07;5.00;;;4.43;;
8291;SDS011;4184;42.724;23.308;2022-07-01T04:02:35;8.13;;;4.63;;
8291;SDS011;4184;42.724;23.308;2022-07-01T04:05:03;4.80;;;4.27;;
8291;SDS011;4184;42.724;23.308;2022-07-01T04:07:31;5.10;;;4.53;;
8291;SDS011;4184;42.724;23.308;2022-07-01T04:09:58;4.53;;;4.10;;
8291;SDS011;4184;42.724;23.308;2022-07-01T04:12:27;4.80;;;4.30;;
8291;SDS011;4184;42.724;23.308;2022-07-01T04:14:55;5.17;;;4.40;;
8291;SDS011;4184;42.724;23.308;2022-07-01T04:17:22;4.40;;;4.00;;
8291;SDS011;4184;42.724;23.308;2022-07-01T04:19:50;4.30;;;3.90;;
8291;SDS011;4184;42.724;23.308;2022-07-01T04:22:18;4.20;;;3.80;;
8291;SDS011;4184;42.724;23.308;2022-07-01T04:25:01;5.73;;;4.43;;
8291;SDS011;4184;42.724;23.308;2022-07-01T04:27:31;5.93;;;3.53;;
8291;SDS011;4184;42.724;23.308;2022-07-01T04:29:59;4.30;;;3.90;;
8291;SDS011;4184;42.724;23.308;2022-07-01T04:32:28;4.67;;;4.03;;
8291;SDS011;4184;42.724;23.308;2022-07-01T04:34:58;4.00;;;3.57;;
8291;SDS011;4184;42.724;23.308;2022-07-01T04:37:33;4.47;;;4.07;;
8291;SDS011;4184;42.724;23.308;2022-07-01T04:40:01;4.23;;;3.40;;
8291;SDS011;4184;42.724;23.308;2022-07-01T04:42:33;4.03;;;3.63;;
8291;SDS011;4184;42.724;23.308;2022-07-01T04:44:59;7.30;;;4.00;;
8291;SDS011;4184;42.724;23.308;2022-07-01T04:47:26;7.13;;;4.17;;
8291;SDS011;4184;42.724;23.308;2022-07-01T04:49:57;5.70;;;4.00;;
8291;SDS011;4184;42.724;23.308;2022-07-01T04:52:26;4.30;;;3.63;;
8291;SDS011;4184;42.724;23.308;2022-07-01T04:54:54;4.37;;;3.83;;
8291;SDS011;4184;42.724;23.308;2022-07-01T04:57:22;4.13;;;3.47;;
8291;SDS011;4184;42.724;23.308;2022-07-01T04:59:51;4.13;;;3.73;;
8291;SDS011;4184;42.724;23.308;2022-07-01T05:02:18;4.17;;;3.70;;
8291;SDS011;4184;42.724;23.308;2022-07-01T05:04:46;5.53;;;3.80;;
8291;SDS011;4184;42.724;23.308;2022-07-01T05:07:13;4.27;;;3.87;;
8291;SDS011;4184;42.724;23.308;2022-07-01T05:09:54;4.97;;;4.30;;
8291;SDS011;4184;42.724;23.308;2022-07-01T05:12:24;4.83;;;4.03;;
8291;SDS011;4184;42.724;23.308;2022-07-01T05:14:53;6.23;;;3.70;;
8291;SDS011;4184;42.724;23.308;2022-07-01T05:17:20;4.63;;;3.73;;
8291;SDS011;4184;42.724;23.308;2022-07-01T05:20:12;5.30;;;3.80;;
8291;SDS011;4184;42.724;23.308;2022-07-01T05:22:57;4.50;;;3.53;;
8291;SDS011;4184;42.724;23.308;2022-07-01T05:25:24;5.00;;;3.30;;
8291;SDS011;4184;42.724;23.308;2022-07-01T05:27:52;5.80;;;4.00;;
8291;SDS011;4184;42.724;23.308;2022-07-01T05:30:21;5.90;;;3.50;;
8291;SDS011;4184;42.724;23.308;2022-07-01T05:32:49;6.80;;;3.53;;
8291;SDS011;4184;42.724;23.308;2022-07-01T05:35:16;4.63;;;3.57;;
8291;SDS011;4184;42.724;23.308;2022-07-01T05:37:44;5.67;;;3.83;;
8291;SDS011;4184;42.724;23.308;2022-07-01T05:40:12;5.23;;;3.70;;
8291;SDS011;4184;42.724;23.308;2022-07-01T05:42:39;4.20;;;3.80;;
8291;SDS011;4184;42.724;23.308;2022-07-01T05:45:07;4.37;;;3.47;;
8291;SDS011;4184;42.724;23.308;2022-07-01T05:47:36;6.50;;;3.90;;
8291;SDS011;4184;42.724;23.308;2022-07-01T05:50:04;4.03;;;3.30;;
8291;SDS011;4184;42.724;23.308;2022-07-01T05:52:33;8.20;;;4.23;;
8291;SDS011;4184;42.724;23.308;2022-07-01T05:55:00;5.13;;;3.83;;
8291;SDS011;4184;42.724;23.308;2022-07-01T05:57:28;5.37;;;4.10;;
8291;SDS011;4184;42.724;23.308;2022-07-01T05:59:55;7.20;;;4.10;;
8291;SDS011;4184;42.724;23.308;2022-07-01T06:02:23;6.77;;;4.10;;
8291;SDS011;4184;42.724;23.308;2022-07-01T06:04:52;7.23;;;4.47;;
8291;SDS011;4184;42.724;23.308;2022-07-01T06:07:19;3.90;;;3.60;;
8291;SDS011;4184;42.724;23.308;2022-07-01T06:09:47;5.20;;;3.90;;
8291;SDS011;4184;42.724;23.308;2022-07-01T06:12:14;5.00;;;3.53;;
8291;SDS011;4184;42.724;23.308;2022-07-01T06:14:42;6.27;;;3.80;;
8291;SDS011;4184;42.724;23.308;2022-07-01T06:17:09;3.87;;;3.50;;
8291;SDS011;4184;42.724;23.308;2022-07-01T06:19:38;4.27;;;3.57;;
8291;SDS011;4184;42.724;23.308;2022-07-01T06:22:07;4.27;;;3.13;;
8291;SDS011;4184;42.724;23.308;2022-07-01T06:24:38;6.63;;;3.90;;
8291;SDS011;4184;42.724;23.308;2022-07-01T06:27:05;4.40;;;3.77;;
8291;SDS011;4184;42.724;23.308;2022-07-01T06:29:34;3.67;;;3.13;;
8291;SDS011;4184;42.724;23.308;2022-07-01T06:32:02;3.70;;;3.13;;
8291;SDS011;4184;42.724;23.308;2022-07-01T06:34:30;4.87;;;3.40;;
8291;SDS011;4184;42.724;23.308;2022-07-01T06:36:57;4.23;;;3.13;;
8291;SDS011;4184;42.724;23.308;2022-07-01T06:39:28;3.30;;;3.00;;
8291;SDS011;4184;42.724;23.308;2022-07-01T06:41:56;5.97;;;3.23;;
8291;SDS011;4184;42.724;23.308;2022-07-01T06:44:23;3.50;;;3.20;;
8291;SDS011;4184;42.724;23.308;2022-07-01T06:46:51;5.77;;;3.40;;
8291;SDS011;4184;42.724;23.308;2022-07-01T06:49:18;2.93;;;2.67;;
8291;SDS011;4184;42.724;23.308;2022-07-01T06:51:46;4.13;;;3.23;;
8291;SDS011;4184;42.724;23.308;2022-07-01T06:54:14;3.83;;;3.00;;
8291;SDS011;4184;42.724;23.308;2022-07-01T06:56:44;5.30;;;3.00;;
8291;SDS011;4184;42.724;23.308;2022-07-01T06:59:12;3.67;;;2.87;;
8291;SDS011;4184;42.724;23.308;2022-07-01T07:01:40;4.70;;;3.03;;
8291;SDS011;4184;42.724;23.308;2022-07-01T07:04:07;3.50;;;3.20;;
8291;SDS011;4184;42.724;23.308;2022-07-01T07:06:35;6.13;;;3.37;;
8291;SDS011;4184;42.724;23.308;2022-07-01T07:09:03;4.17;;;3.33;;
8291;SDS011;4184;42.724;23.308;2022-07-01T07:11:30;4.00;;;3.00;;
8291;SDS011;4184;42.724;23.308;2022-07-01T07:13:59;5.70;;;3.30;;
8291;SDS011;4184;42.724;23.308;2022-07-01T07:16:26;6.40;;;3.40;;
8291;SDS011;4184;42.724;23.308;2022-07-01T07:18:54;5.80;;;3.30;;
8291;SDS011;4184;42.724;23.308;2022-07-01T07:21:21;4.80;;;3.40;;
8291;SDS011;4184;42.724;23.308;2022-07-01T07:23:49;6.63;;;3.27;;
8291;SDS011;4184;42.724;23.308;2022-07-01T07:26:17;4.47;;;3.40;;
8291;SDS011;4184;42.724;23.308;2022-07-01T07:28:44;4.90;;;3.60;;
8291;SDS011;4184;42.724;23.308;2022-07-01T07:31:13;4.43;;;3.17;;
8291;SDS011;4184;42.724;23.308;2022-07-01T07:33:40;5.97;;;3.20;;
8291;SDS011;4184;42.724;23.308;2022-07-01T07:36:08;3.73;;;3.03;;
8291;SDS011;4184;42.724;23.308;2022-07-01T07:38:36;4.87;;;3.30;;
8291;SDS011;4184;42.724;23.308;2022-07-01T07:41:03;5.10;;;3.43;;
8291;SDS011;4184;42.724;23.308;2022-07-01T07:43:31;4.07;;;3.40;;
8291;SDS011;4184;42.724;23.308;2022-07-01T07:45:58;5.50;;;3.50;;
8291;SDS011;4184;42.724;23.308;2022-07-01T07:48:31;5.50;;;3.20;;
8291;SDS011;4184;42.724;23.308;2022-07-01T07:50:58;4.50;;;3.70;;
8291;SDS011;4184;42.724;23.308;2022-07-01T07:53:26;5.40;;;3.10;;
8291;SDS011;4184;42.724;23.308;2022-07-01T07:55:54;5.10;;;3.60;;
8291;SDS011;4184;42.724;23.308;2022-07-01T07:58:21;5.13;;;3.23;;
8291;SDS011;4184;42.724;23.308;2022-07-01T08:00:49;3.50;;;3.00;;
8291;SDS011;4184;42.724;23.308;2022-07-01T08:03:16;3.10;;;2.73;;
8291;SDS011;4184;42.724;23.308;2022-07-01T08:05:45;3.77;;;2.87;;
8291;SDS011;4184;42.724;23.308;2022-07-01T08:08:13;3.33;;;3.03;;
8291;SDS011;4184;42.724;23.308;2022-07-01T08:10:41;3.50;;;3.10;;
8291;SDS011;4184;42.724;23.308;2022-07-01T08:13:08;5.00;;;3.40;;
8291;SDS011;4184;42.724;23.308;2022-07-01T08:15:36;4.20;;;3.00;;
8291;SDS011;4184;42.724;23.308;2022-07-01T08:18:03;5.07;;;3.53;;
8291;SDS011;4184;42.724;23.308;2022-07-01T08:20:31;3.40;;;2.90;;
8291;SDS011;4184;42.724;23.308;2022-07-01T08:23:00;2.97;;;2.73;;
8291;SDS011;4184;42.724;23.308;2022-07-01T08:25:27;3.47;;;2.90;;
8291;SDS011;4184;42.724;23.308;2022-07-01T08:27:55;2.80;;;2.60;;
8291;SDS011;4184;42.724;23.308;2022-07-01T08:30:22;3.57;;;3.17;;
8291;SDS011;4184;42.724;23.308;2022-07-01T08:32:50;4.50;;;3.00;;
8291;SDS011;4184;42.724;23.308;2022-07-01T08:35:19;5.80;;;3.40;;
8291;SDS011;4184;42.724;23.308;2022-07-01T08:37:47;3.30;;;2.87;;
8291;SDS011;4184;42.724;23.308;2022-07-01T08:40:16;4.23;;;3.07;;
8291;SDS011;4184;42.724;23.308;2022-07-01T08:42:44;2.93;;;2.53;;
8291;SDS011;4184;42.724;23.308;2022-07-01T08:45:12;5.53;;;2.90;;
8291;SDS011;4184;42.724;23.308;2022-07-01T08:47:49;3.33;;;3.00;;
8291;SDS011;4184;42.724;23.308;2022-07-01T08:50:17;3.03;;;2.70;;
8291;SDS011;4184;42.724;23.308;2022-07-01T08:52:44;3.43;;;2.70;;
8291;SDS011;4184;42.724;23.308;2022-07-01T08:55:12;2.87;;;2.60;;
8291;SDS011;4184;42.724;23.308;2022-07-01T08:57:44;3.97;;;2.90;;
8291;SDS011;4184;42.724;23.308;2022-07-01T09:00:12;2.70;;;2.50;;
8291;SDS011;4184;42.724;23.308;2022-07-01T09:02:54;3.23;;;2.93;;
8291;SDS011;4184;42.724;23.308;2022-07-01T09:05:23;2.87;;;2.63;;
8291;SDS011;4184;42.724;23.308;2022-07-01T09:07:58;3.00;;;2.70;;
8291;SDS011;4184;42.724;23.308;2022-07-01T09:10:28;5.43;;;3.30;;
8291;SDS011;4184;42.724;23.308;2022-07-01T09:13:01;3.63;;;3.00;;
8291;SDS011;4184;42.724;23.308;2022-07-01T09:15:32;3.07;;;2.77;;
8291;SDS011;4184;42.724;23.308;2022-07-01T09:18:02;3.07;;;2.73;;
8291;SDS011;4184;42.724;23.308;2022-07-01T09:20:32;2.60;;;2.40;;
8291;SDS011;4184;42.724;23.308;2022-07-01T09:23:02;3.30;;;3.00;;
8291;SDS011;4184;42.724;23.308;2022-07-01T09:25:32;3.10;;;2.80;;
8291;SDS011;4184;42.724;23.308;2022-07-01T09:28:09;4.07;;;2.90;;
8291;SDS011;4184;42.724;23.308;2022-07-01T09:30:40;3.17;;;2.87;;
8291;SDS011;4184;42.724;23.308;2022-07-01T09:33:12;3.40;;;2.50;;
8291;SDS011;4184;42.724;23.308;2022-07-01T09:35:41;3.47;;;2.70;;
8291;SDS011;4184;42.724;23.308;2022-07-01T09:38:10;2.87;;;2.57;;
8291;SDS011;4184;42.724;23.308;2022-07-01T09:40:45;4.37;;;2.77;;
8291;SDS011;4184;42.724;23.308;2022-07-01T09:43:17;4.30;;;2.70;;
8291;SDS011;4184;42.724;23.308;2022-07-01T09:45:48;3.37;;;2.80;;
8291;SDS011;4184;42.724;23.308;2022-07-01T09:48:21;4.03;;;3.17;;
8291;SDS011;4184;42.724;23.308;2022-07-01T09:50:50;3.13;;;2.77;;
8291;SDS011;4184;42.724;23.308;2022-07-01T09:53:19;2.90;;;2.63;;
8291;SDS011;4184;42.724;23.308;2022-07-01T09:55:47;3.60;;;3.00;;
8291;SDS011;4184;42.724;23.308;2022-07-01T09:58:16;3.00;;;2.77;;
8291;SDS011;4184;42.724;23.308;2022-07-01T10:00:44;4.63;;;2.97;;
8291;SDS011;4184;42.724;23.308;2022-07-01T10:03:12;3.83;;;2.57;;
8291;SDS011;4184;42.724;23.308;2022-07-01T10:05:42;3.13;;;2.83;;
8291;SDS011;4184;42.724;23.308;2022-07-01T10:08:26;3.17;;;2.63;;
8291;SDS011;4184;42.724;23.308;2022-07-01T10:14:25;3.33;;;2.70;;
8291;SDS011;4184;42.724;23.308;2022-07-01T10:16:55;3.73;;;2.53;;
8291;SDS011;4184;42.724;23.308;2022-07-01T10:19:26;2.83;;;2.57;;
8291;SDS011;4184;42.724;23.308;2022-07-01T10:21:59;3.10;;;2.87;;
8291;SDS011;4184;42.724;23.308;2022-07-01T10:24:47;2.50;;;2.27;;
8291;SDS011;4184;42.724;23.308;2022-07-01T10:27:19;3.53;;;2.80;;
8291;SDS011;4184;42.724;23.308;2022-07-01T10:29:48;2.80;;;2.60;;
8291;SDS011;4184;42.724;23.308;2022-07-01T10:32:46;3.13;;;2.83;;
8291;SDS011;4184;42.724;23.308;2022-07-01T10:35:14;3.73;;;2.50;;
8291;SDS011;4184;42.724;23.308;2022-07-01T10:38:00;2.70;;;2.50;;
8291;SDS011;4184;42.724;23.308;2022-07-01T10:40:41;2.70;;;2.50;;
8291;SDS011;4184;42.724;23.308;2022-07-01T10:43:11;2.97;;;2.70;;
8291;SDS011;4184;42.724;23.308;2022-07-01T10:45:44;3.07;;;2.70;;
8291;SDS011;4184;42.724;23.308;2022-07-01T10:48:18;2.93;;;2.50;;
8291;SDS011;4184;42.724;23.308;2022-07-01T10:50:47;3.10;;;2.80;;
8291;SDS011;4184;42.724;23.308;2022-07-01T10:53:15;2.90;;;2.70;;
8291;SDS011;4184;42.724;23.308;2022-07-01T10:55:44;2.87;;;2.57;;
8291;SDS011;4184;42.724;23.308;2022-07-01T10:58:13;2.93;;;2.70;;
8291;SDS011;4184;42.724;23.308;2022-07-01T11:00:44;8.17;;;3.33;;
8291;SDS011;4184;42.724;23.308;2022-07-01T11:03:16;4.00;;;3.60;;
8291;SDS011;4184;42.724;23.308;2022-07-01T11:05:49;3.20;;;3.00;;
8291;SDS011;4184;42.724;23.308;2022-07-01T11:08:18;3.50;;;3.20;;
8291;SDS011;4184;42.724;23.308;2022-07-01T11:10:49;3.40;;;3.10;;
8291;SDS011;4184;42.724;23.308;2022-07-01T11:13:18;3.53;;;3.23;;
8291;SDS011;4184;42.724;23.308;2022-07-01T11:15:48;3.90;;;3.50;;
8291;SDS011;4184;42.724;23.308;2022-07-01T11:18:16;3.07;;;2.87;;
8291;SDS011;4184;42.724;23.308;2022-07-01T11:20:45;3.47;;;3.13;;
8291;SDS011;4184;42.724;23.308;2022-07-01T11:23:12;4.50;;;3.00;;
8291;SDS011;4184;42.724;23.308;2022-07-01T11:25:41;3.13;;;2.93;;
8291;SDS011;4184;42.724;23.308;2022-07-01T11:28:10;2.80;;;2.60;;
8291;SDS011;4184;42.724;23.308;2022-07-01T11:30:38;3.10;;;2.90;;
8291;SDS011;4184;42.724;23.308;2022-07-01T11:33:07;3.53;;;2.80;;
8291;SDS011;4184;42.724;23.308;2022-07-01T11:35:36;3.17;;;2.97;;
8291;SDS011;4184;42.724;23.308;2022-07-01T11:38:22;2.93;;;2.70;;
8291;SDS011;4184;42.724;23.308;2022-07-01T11:41:09;2.83;;;2.63;;
8291;SDS011;4184;42.724;23.308;2022-07-01T11:43:44;2.80;;;2.60;;
8291;SDS011;4184;42.724;23.308;2022-07-01T11:46:12;2.93;;;2.73;;
8291;SDS011;4184;42.724;23.308;2022-07-01T11:48:41;3.03;;;2.83;;
8291;SDS011;4184;42.724;23.308;2022-07-01T11:51:12;3.17;;;2.97;;
8291;SDS011;4184;42.724;23.308;2022-07-01T11:53:41;3.30;;;3.00;;
8291;SDS011;4184;42.724;23.308;2022-07-01T11:56:09;2.97;;;2.70;;
8291;SDS011;4184;42.724;23.308;2022-07-01T11:58:44;2.70;;;2.50;;
8291;SDS011;4184;42.724;23.308;2022-07-01T12:01:24;2.67;;;2.50;;
8291;SDS011;4184;42.724;23.308;2022-07-01T12:03:55;2.97;;;2.77;;
8291;SDS011;4184;42.724;23.308;2022-07-01T12:06:24;2.80;;;2.60;;
8291;SDS011;4184;42.724;23.308;2022-07-01T12:08:53;2.83;;;2.60;;
8291;SDS011;4184;42.724;23.308;2022-07-01T12:11:21;2.77;;;2.57;;
8291;SDS011;4184;42.724;23.308;2022-07-01T12:13:50;3.53;;;2.43;;
8291;SDS011;4184;42.724;23.308;2022-07-01T12:16:18;2.53;;;2.33;;
8291;SDS011;4184;42.724;23.308;2022-07-01T12:18:54;3.47;;;2.50;;
8291;SDS011;4184;42.724;23.308;2022-07-01T12:21:25;2.87;;;2.67;;
8291;SDS011;4184;42.724;23.308;2022-07-01T12:24:06;2.90;;;2.70;;
8291;SDS011;4184;42.724;23.308;2022-07-01T12:26:35;2.70;;;2.50;;
8291;SDS011;4184;42.724;23.308;2022-07-01T12:29:18;2.50;;;2.30;;
8291;SDS011;4184;42.724;23.308;2022-07-01T12:31:57;3.47;;;2.80;;
8291;SDS011;4184;42.724;23.308;2022-07-01T12:34:40;2.70;;;2.50;;
8291;SDS011;4184;42.724;23.308;2022-07-01T12:37:10;2.93;;;2.43;;
8291;SDS011;4184;42.724;23.308;2022-07-01T12:39:43;3.07;;;2.50;;
8291;SDS011;4184;42.724;23.308;2022-07-01T12:42:21;2.40;;;2.20;;
8291;SDS011;4184;42.724;23.308;2022-07-01T12:44:50;3.60;;;2.70;;
8291;SDS011;4184;42.724;23.308;2022-07-01T12:47:19;2.70;;;2.50;;
8291;SDS011;4184;42.724;23.308;2022-07-01T12:49:54;2.20;;;2.10;;
8291;SDS011;4184;42.724;23.308;2022-07-01T12:52:39;2.67;;;2.47;;
8291;SDS011;4184;42.724;23.308;2022-07-01T12:55:14;3.43;;;2.73;;
8291;SDS011;4184;42.724;23.308;2022-07-01T12:57:43;2.70;;;2.50;;
8291;SDS011;4184;42.724;23.308;2022-07-01T13:00:12;2.30;;;2.10;;
8291;SDS011;4184;42.724;23.308;2022-07-01T13:02:41;2.57;;;2.37;;
8291;SDS011;4184;42.724;23.308;2022-07-01T13:05:10;2.50;;;2.30;;
8291;SDS011;4184;42.724;23.308;2022-07-01T13:07:39;2.30;;;2.10;;
8291;SDS011;4184;42.724;23.308;2022-07-01T13:10:06;2.30;;;2.10;;
8291;SDS011;4184;42.724;23.308;2022-07-01T13:12:34;2.90;;;2.70;;
8291;SDS011;4184;42.724;23.308;2022-07-01T13:15:02;3.40;;;3.10;;
8291;SDS011;4184;42.724;23.308;2022-07-01T13:17:30;3.00;;;2.70;;
8291;SDS011;4184;42.724;23.308;2022-07-01T13:19:58;3.80;;;3.00;;
8291;SDS011;4184;42.724;23.308;2022-07-01T13:22:27;3.60;;;3.30;;
8291;SDS011;4184;42.724;23.308;2022-07-01T13:24:54;3.13;;;2.93;;
8291;SDS011;4184;42.724;23.308;2022-07-01T13:27:22;3.53;;;3.23;;
8291;SDS011;4184;42.724;23.308;2022-07-01T13:29:49;4.87;;;3.53;;
8291;SDS011;4184;42.724;23.308;2022-07-01T13:32:17;3.90;;;3.10;;
8291;SDS011;4184;42.724;23.308;2022-07-01T13:34:45;4.80;;;3.30;;
8291;SDS011;4184;42.724;23.308;2022-07-01T13:37:12;3.30;;;3.00;;
8291;SDS011;4184;42.724;23.308;2022-07-01T13:39:41;3.00;;;2.80;;
8291;SDS011;4184;42.724;23.308;2022-07-01T13:42:09;3.50;;;3.20;;
8291;SDS011;4184;42.724;23.308;2022-07-01T13:44:36;3.57;;;3.27;;
8291;SDS011;4184;42.724;23.308;2022-07-01T13:47:04;3.27;;;3.03;;
8291;SDS011;4184;42.724;23.308;2022-07-01T13:49:34;3.80;;;2.87;;
8291;SDS011;4184;42.724;23.308;2022-07-01T13:52:02;3.10;;;2.90;;
8291;SDS011;4184;42.724;23.308;2022-07-01T13:54:29;3.50;;;3.20;;
8291;SDS011;4184;42.724;23.308;2022-07-01T13:56:58;3.63;;;3.30;;
8291;SDS011;4184;42.724;23.308;2022-07-01T13:59:26;4.07;;;2.97;;
8291;SDS011;4184;42.724;23.308;2022-07-01T14:01:54;3.07;;;2.80;;
8291;SDS011;4184;42.724;23.308;2022-07-01T14:04:21;3.50;;;3.20;;
8291;SDS011;4184;42.724;23.308;2022-07-01T14:06:49;4.43;;;3.10;;
8291;SDS011;4184;42.724;23.308;2022-07-01T14:09:17;3.23;;;2.97;;
8291;SDS011;4184;42.724;23.308;2022-07-01T14:11:45;3.40;;;3.10;;
8291;SDS011;4184;42.724;23.308;2022-07-01T14:14:14;3.13;;;2.80;;
8291;SDS011;4184;42.724;23.308;2022-07-01T14:16:42;3.10;;;2.90;;
8291;SDS011;4184;42.724;23.308;2022-07-01T14:19:09;3.80;;;3.17;;
8291;SDS011;4184;42.724;23.308;2022-07-01T14:21:37;3.50;;;3.27;;
8291;SDS011;4184;42.724;23.308;2022-07-01T14:24:05;3.07;;;2.77;;
8291;SDS011;4184;42.724;23.308;2022-07-01T14:26:33;3.60;;;3.30;;
8291;SDS011;4184;42.724;23.308;2022-07-01T14:29:00;3.07;;;2.77;;
8291;SDS011;4184;42.724;23.308;2022-07-01T14:31:29;3.37;;;3.07;;
8291;SDS011;4184;42.724;23.308;2022-07-01T14:33:57;3.30;;;3.00;;
8291;SDS011;4184;42.724;23.308;2022-07-01T14:36:24;3.40;;;3.10;;
8291;SDS011;4184;42.724;23.308;2022-07-01T14:38:52;3.07;;;2.87;;
8291;SDS011;4184;42.724;23.308;2022-07-01T14:41:19;3.30;;;3.00;;
8291;SDS011;4184;42.724;23.308;2022-07-01T14:43:47;3.53;;;3.23;;
8291;SDS011;4184;42.724;23.308;2022-07-01T14:46:14;3.03;;;2.83;;
8291;SDS011;4184;42.724;23.308;2022-07-01T14:48:44;3.13;;;2.93;;
8291;SDS011;4184;42.724;23.308;2022-07-01T14:51:11;3.63;;;3.33;;
8291;SDS011;4184;42.724;23.308;2022-07-01T14:53:39;3.57;;;3.20;;
8291;SDS011;4184;42.724;23.308;2022-07-01T14:56:06;3.37;;;3.07;;
8291;SDS011;4184;42.724;23.308;2022-07-01T14:58:34;3.33;;;3.03;;
8291;SDS011;4184;42.724;23.308;2022-07-01T15:01:02;3.50;;;3.27;;
8291;SDS011;4184;42.724;23.308;2022-07-01T15:03:29;3.30;;;3.10;;
8291;SDS011;4184;42.724;23.308;2022-07-01T15:05:58;3.30;;;2.80;;
8291;SDS011;4184;42.724;23.308;2022-07-01T15:08:26;3.57;;;3.27;;
8291;SDS011;4184;42.724;23.308;2022-07-01T15:10:53;3.70;;;3.40;;
8291;SDS011;4184;42.724;23.308;2022-07-01T15:13:27;2.90;;;2.70;;
8291;SDS011;4184;42.724;23.308;2022-07-01T15:15:56;3.60;;;3.17;;